sensor_id;sensor_type;location;lat;lon;timestamp;P1;durP1;ratioP1;P2;durP2;ratioP2
64351;SDS011;50680;52.626;-8.668;2023-03-23T00:01:03;4.50;;;0.82;;
64351;SDS011;50680;52.626;-8.668;2023-03-23T00:03:29;7.35;;;0.80;;
64351;SDS011;50680;52.626;-8.668;2023-03-23T00:05:59;8.13;;;1.00;;
64351;SDS011;50680;52.626;-8.668;2023-03-23T00:08:33;9.20;;;0.82;;
64351;SDS011;50680;52.626;-8.668;2023-03-23T00:11:03;4.97;;;0.73;;
64351;SDS011;50680;52.626;-8.668;2023-03-23T00:13:30;8.93;;;0.88;;
64351;SDS011;50680;52.626;-8.668;2023-03-23T00:15:56;3.53;;;0.57;;
64351;SDS011;50680;52.626;-8.668;2023-03-23T00:18:25;8.80;;;0.90;;
64351;SDS011;50680;52.626;-8.668;2023-03-23T00:20:52;4.47;;;0.95;;
64351;SDS011;50680;52.626;-8.668;2023-03-23T00:23:20;6.07;;;0.50;;
64351;SDS011;50680;52.626;-8.668;2023-03-23T00:25:48;2.78;;;0.40;;
64351;SDS011;50680;52.626;-8.668;2023-03-23T00:28:18;2.40;;;0.32;;
64351;SDS011;50680;52.626;-8.668;2023-03-23T00:31:00;5.32;;;0.50;;
64351;SDS011;50680;52.626;-8.668;2023-03-23T00:33:27;1.80;;;0.45;;
64351;SDS011;50680;52.626;-8.668;2023-03-23T00:35:55;2.78;;;0.38;;
64351;SDS011;50680;52.626;-8.668;2023-03-23T00:38:21;1.65;;;0.13;;
64351;SDS011;50680;52.626;-8.668;2023-03-23T00:40:48;2.15;;;0.20;;
64351;SDS011;50680;52.626;-8.668;2023-03-23T00:43:15;0.30;;;0.20;;
64351;SDS011;50680;52.626;-8.668;2023-03-23T00:45:44;1.70;;;0.13;;
64351;SDS011;50680;52.626;-8.668;2023-03-23T00:48:14;1.00;;;0.10;;
64351;SDS011;50680;52.626;-8.668;2023-03-23T00:50:40;0.80;;;0.10;;
64351;SDS011;50680;52.626;-8.668;2023-03-23T00:53:06;0.25;;;0.10;;
64351;SDS011;50680;52.626;-8.668;2023-03-23T00:55:32;1.70;;;0.20;;
64351;SDS011;50680;52.626;-8.668;2023-03-23T00:57:59;1.08;;;0.30;;
64351;SDS011;50680;52.626;-8.668;2023-03-23T01:00:25;2.08;;;0.20;;
64351;SDS011;50680;52.626;-8.668;2023-03-23T01:02:52;6.22;;;0.38;;
64351;SDS011;50680;52.626;-8.668;2023-03-23T01:05:18;1.60;;;0.10;;
64351;SDS011;50680;52.626;-8.668;2023-03-23T01:07:45;4.15;;;0.40;;
64351;SDS011;50680;52.626;-8.668;2023-03-23T01:10:11;4.07;;;0.85;;
64351;SDS011;50680;52.626;-8.668;2023-03-23T01:12:42;3.05;;;0.32;;
64351;SDS011;50680;52.626;-8.668;2023-03-23T01:15:09;4.10;;;0.32;;
64351;SDS011;50680;52.626;-8.668;2023-03-23T01:17:39;3.13;;;0.40;;
64351;SDS011;50680;52.626;-8.668;2023-03-23T01:20:05;2.85;;;0.30;;
64351;SDS011;50680;52.626;-8.668;2023-03-23T01:22:32;5.63;;;0.60;;
64351;SDS011;50680;52.626;-8.668;2023-03-23T01:24:58;0.93;;;0.30;;
64351;SDS011;50680;52.626;-8.668;2023-03-23T01:27:23;4.57;;;0.40;;
64351;SDS011;50680;52.626;-8.668;2023-03-23T01:29:49;3.50;;;0.35;;
64351;SDS011;50680;52.626;-8.668;2023-03-23T01:32:15;5.95;;;0.50;;
64351;SDS011;50680;52.626;-8.668;2023-03-23T01:34:41;1.67;;;0.38;;
64351;SDS011;50680;52.626;-8.668;2023-03-23T01:37:06;4.60;;;0.50;;
64351;SDS011;50680;52.626;-8.668;2023-03-23T01:39:32;2.42;;;0.20;;
64351;SDS011;50680;52.626;-8.668;2023-03-23T01:41:58;2.63;;;0.35;;
64351;SDS011;50680;52.626;-8.668;2023-03-23T01:46:49;6.00;;;0.40;;
64351;SDS011;50680;52.626;-8.668;2023-03-23T01:49:17;4.57;;;0.40;;
64351;SDS011;50680;52.626;-8.668;2023-03-23T01:54:15;6.30;;;0.43;;
64351;SDS011;50680;52.626;-8.668;2023-03-23T01:56:50;3.55;;;0.65;;
64351;SDS011;50680;52.626;-8.668;2023-03-23T01:59:20;7.18;;;0.65;;
64351;SDS011;50680;52.626;-8.668;2023-03-23T02:01:48;2.72;;;0.43;;
64351;SDS011;50680;52.626;-8.668;2023-03-23T02:04:14;9.20;;;0.95;;
64351;SDS011;50680;52.626;-8.668;2023-03-23T02:06:41;7.85;;;0.70;;
64351;SDS011;50680;52.626;-8.668;2023-03-23T02:09:08;5.40;;;0.85;;
64351;SDS011;50680;52.626;-8.668;2023-03-23T02:11:34;4.43;;;0.40;;
64351;SDS011;50680;52.626;-8.668;2023-03-23T02:13:59;5.53;;;0.63;;
64351;SDS011;50680;52.626;-8.668;2023-03-23T02:35:02;7.53;;;0.77;;
64351;SDS011;50680;52.626;-8.668;2023-03-23T02:38:01;6.30;;;0.70;;
64351;SDS011;50680;52.626;-8.668;2023-03-23T02:40:33;4.68;;;0.70;;
64351;SDS011;50680;52.626;-8.668;2023-03-23T02:43:05;5.22;;;0.55;;
64351;SDS011;50680;52.626;-8.668;2023-03-23T02:45:34;4.43;;;0.75;;
64351;SDS011;50680;52.626;-8.668;2023-03-23T02:48:03;5.78;;;0.75;;
64351;SDS011;50680;52.626;-8.668;2023-03-23T02:50:30;7.20;;;0.80;;
64351;SDS011;50680;52.626;-8.668;2023-03-23T02:52:58;10.10;;;1.38;;
64351;SDS011;50680;52.626;-8.668;2023-03-23T02:55:26;6.28;;;0.70;;
64351;SDS011;50680;52.626;-8.668;2023-03-23T02:57:55;7.40;;;0.90;;
64351;SDS011;50680;52.626;-8.668;2023-03-23T03:00:22;10.00;;;1.05;;
64351;SDS011;50680;52.626;-8.668;2023-03-23T03:02:51;12.93;;;0.90;;
64351;SDS011;50680;52.626;-8.668;2023-03-23T03:07:54;9.07;;;1.00;;
64351;SDS011;50680;52.626;-8.668;2023-03-23T03:13:54;9.25;;;0.93;;
64351;SDS011;50680;52.626;-8.668;2023-03-23T03:21:43;4.95;;;0.70;;
64351;SDS011;50680;52.626;-8.668;2023-03-23T03:24:13;3.45;;;0.60;;
64351;SDS011;50680;52.626;-8.668;2023-03-23T03:26:42;5.85;;;0.75;;
64351;SDS011;50680;52.626;-8.668;2023-03-23T03:29:19;4.63;;;0.90;;
64351;SDS011;50680;52.626;-8.668;2023-03-23T03:31:49;4.10;;;0.60;;
64351;SDS011;50680;52.626;-8.668;2023-03-23T03:34:20;6.13;;;0.40;;
64351;SDS011;50680;52.626;-8.668;2023-03-23T03:36:47;3.88;;;0.68;;
64351;SDS011;50680;52.626;-8.668;2023-03-23T03:39:15;5.57;;;0.85;;
64351;SDS011;50680;52.626;-8.668;2023-03-23T03:41:42;4.07;;;0.50;;
64351;SDS011;50680;52.626;-8.668;2023-03-23T03:44:08;3.65;;;0.52;;
64351;SDS011;50680;52.626;-8.668;2023-03-23T03:46:35;3.20;;;0.57;;
64351;SDS011;50680;52.626;-8.668;2023-03-23T03:49:02;3.10;;;0.40;;
64351;SDS011;50680;52.626;-8.668;2023-03-23T03:51:30;2.88;;;0.30;;
64351;SDS011;50680;52.626;-8.668;2023-03-23T03:53:57;6.75;;;0.50;;
64351;SDS011;50680;52.626;-8.668;2023-03-23T03:56:23;6.07;;;0.30;;
64351;SDS011;50680;52.626;-8.668;2023-03-23T03:58:50;5.28;;;0.40;;
64351;SDS011;50680;52.626;-8.668;2023-03-23T04:01:16;13.38;;;0.98;;
64351;SDS011;50680;52.626;-8.668;2023-03-23T04:03:43;3.88;;;0.60;;
64351;SDS011;50680;52.626;-8.668;2023-03-23T04:06:09;5.07;;;0.63;;
64351;SDS011;50680;52.626;-8.668;2023-03-23T04:08:36;8.60;;;0.70;;
64351;SDS011;50680;52.626;-8.668;2023-03-23T04:11:06;7.40;;;1.13;;
64351;SDS011;50680;52.626;-8.668;2023-03-23T04:13:37;6.93;;;0.80;;
64351;SDS011;50680;52.626;-8.668;2023-03-23T04:16:03;5.78;;;0.70;;
64351;SDS011;50680;52.626;-8.668;2023-03-23T04:18:29;6.03;;;0.60;;
64351;SDS011;50680;52.626;-8.668;2023-03-23T04:20:58;8.38;;;0.90;;
64351;SDS011;50680;52.626;-8.668;2023-03-23T04:23:25;8.48;;;0.73;;
64351;SDS011;50680;52.626;-8.668;2023-03-23T04:25:53;8.57;;;0.90;;
64351;SDS011;50680;52.626;-8.668;2023-03-23T04:28:22;9.82;;;1.00;;
64351;SDS011;50680;52.626;-8.668;2023-03-23T04:30:50;4.55;;;0.70;;
64351;SDS011;50680;52.626;-8.668;2023-03-23T04:33:20;4.57;;;0.50;;
64351;SDS011;50680;52.626;-8.668;2023-03-23T04:35:50;5.30;;;0.80;;
64351;SDS011;50680;52.626;-8.668;2023-03-23T04:38:18;9.38;;;1.13;;
64351;SDS011;50680;52.626;-8.668;2023-03-23T04:40:46;6.82;;;0.70;;
64351;SDS011;50680;52.626;-8.668;2023-03-23T04:43:12;11.55;;;1.25;;
64351;SDS011;50680;52.626;-8.668;2023-03-23T04:45:40;5.82;;;0.52;;
64351;SDS011;50680;52.626;-8.668;2023-03-23T04:48:11;7.40;;;0.90;;
64351;SDS011;50680;52.626;-8.668;2023-03-23T04:50:37;6.40;;;0.63;;
64351;SDS011;50680;52.626;-8.668;2023-03-23T04:53:03;8.38;;;0.80;;
64351;SDS011;50680;52.626;-8.668;2023-03-23T04:55:30;6.93;;;1.00;;
64351;SDS011;50680;52.626;-8.668;2023-03-23T04:57:57;7.25;;;1.48;;
64351;SDS011;50680;52.626;-8.668;2023-03-23T05:00:26;10.65;;;0.73;;
64351;SDS011;50680;52.626;-8.668;2023-03-23T05:02:52;7.75;;;0.70;;
64351;SDS011;50680;52.626;-8.668;2023-03-23T05:05:20;4.22;;;0.50;;
64351;SDS011;50680;52.626;-8.668;2023-03-23T05:07:47;5.15;;;0.75;;
64351;SDS011;50680;52.626;-8.668;2023-03-23T05:10:14;9.85;;;1.40;;
64351;SDS011;50680;52.626;-8.668;2023-03-23T05:12:40;10.18;;;1.33;;
64351;SDS011;50680;52.626;-8.668;2023-03-23T05:15:07;6.45;;;0.70;;
64351;SDS011;50680;52.626;-8.668;2023-03-23T05:17:33;9.73;;;1.20;;
64351;SDS011;50680;52.626;-8.668;2023-03-23T05:20:00;10.48;;;1.10;;
64351;SDS011;50680;52.626;-8.668;2023-03-23T05:22:27;5.43;;;0.80;;
64351;SDS011;50680;52.626;-8.668;2023-03-23T05:24:53;5.22;;;0.70;;
64351;SDS011;50680;52.626;-8.668;2023-03-23T05:27:18;8.38;;;0.85;;
64351;SDS011;50680;52.626;-8.668;2023-03-23T05:29:45;10.50;;;1.02;;
64351;SDS011;50680;52.626;-8.668;2023-03-23T05:32:16;8.07;;;1.20;;
64351;SDS011;50680;52.626;-8.668;2023-03-23T05:34:42;10.55;;;1.80;;
64351;SDS011;50680;52.626;-8.668;2023-03-23T05:37:08;8.07;;;0.90;;
64351;SDS011;50680;52.626;-8.668;2023-03-23T05:39:35;12.25;;;1.17;;
64351;SDS011;50680;52.626;-8.668;2023-03-23T05:42:02;11.30;;;1.48;;
64351;SDS011;50680;52.626;-8.668;2023-03-23T05:44:28;13.57;;;1.30;;
64351;SDS011;50680;52.626;-8.668;2023-03-23T05:46:54;6.95;;;1.15;;
64351;SDS011;50680;52.626;-8.668;2023-03-23T05:49:20;6.72;;;1.00;;
64351;SDS011;50680;52.626;-8.668;2023-03-23T05:51:47;12.05;;;1.27;;
64351;SDS011;50680;52.626;-8.668;2023-03-23T05:54:13;5.25;;;1.10;;
64351;SDS011;50680;52.626;-8.668;2023-03-23T05:56:39;8.43;;;1.13;;
64351;SDS011;50680;52.626;-8.668;2023-03-23T05:59:05;13.00;;;1.20;;
64351;SDS011;50680;52.626;-8.668;2023-03-23T06:01:31;6.40;;;0.77;;
64351;SDS011;50680;52.626;-8.668;2023-03-23T06:03:58;6.43;;;1.48;;
64351;SDS011;50680;52.626;-8.668;2023-03-23T06:06:27;13.77;;;1.52;;
64351;SDS011;50680;52.626;-8.668;2023-03-23T06:08:55;8.75;;;1.00;;
64351;SDS011;50680;52.626;-8.668;2023-03-23T06:11:22;11.65;;;1.58;;
64351;SDS011;50680;52.626;-8.668;2023-03-23T06:13:49;12.18;;;1.33;;
64351;SDS011;50680;52.626;-8.668;2023-03-23T06:16:15;9.50;;;1.50;;
64351;SDS011;50680;52.626;-8.668;2023-03-23T06:18:41;6.25;;;1.10;;
64351;SDS011;50680;52.626;-8.668;2023-03-23T06:21:08;6.13;;;0.75;;
64351;SDS011;50680;52.626;-8.668;2023-03-23T06:23:34;10.10;;;0.93;;
64351;SDS011;50680;52.626;-8.668;2023-03-23T06:26:01;7.28;;;0.70;;
64351;SDS011;50680;52.626;-8.668;2023-03-23T06:28:30;4.43;;;0.60;;
64351;SDS011;50680;52.626;-8.668;2023-03-23T06:31:00;6.88;;;0.82;;
64351;SDS011;50680;52.626;-8.668;2023-03-23T06:33:29;4.10;;;0.70;;
64351;SDS011;50680;52.626;-8.668;2023-03-23T06:35:55;2.78;;;0.73;;
64351;SDS011;50680;52.626;-8.668;2023-03-23T06:38:21;5.13;;;1.00;;
64351;SDS011;50680;52.626;-8.668;2023-03-23T06:40:47;2.67;;;0.28;;
64351;SDS011;50680;52.626;-8.668;2023-03-23T06:43:13;5.63;;;0.60;;
64351;SDS011;50680;52.626;-8.668;2023-03-23T06:45:39;6.63;;;0.60;;
64351;SDS011;50680;52.626;-8.668;2023-03-23T06:48:05;6.13;;;0.73;;
64351;SDS011;50680;52.626;-8.668;2023-03-23T06:50:32;10.05;;;0.73;;
64351;SDS011;50680;52.626;-8.668;2023-03-23T06:52:57;8.15;;;0.77;;
64351;SDS011;50680;52.626;-8.668;2023-03-23T06:55:23;8.70;;;0.88;;
64351;SDS011;50680;52.626;-8.668;2023-03-23T06:57:49;8.27;;;1.27;;
64351;SDS011;50680;52.626;-8.668;2023-03-23T07:00:14;12.15;;;1.25;;
64351;SDS011;50680;52.626;-8.668;2023-03-23T07:02:40;12.57;;;1.13;;
64351;SDS011;50680;52.626;-8.668;2023-03-23T07:05:07;10.30;;;1.60;;
64351;SDS011;50680;52.626;-8.668;2023-03-23T07:07:34;13.93;;;1.25;;
64351;SDS011;50680;52.626;-8.668;2023-03-23T07:10:01;10.30;;;1.60;;
64351;SDS011;50680;52.626;-8.668;2023-03-23T07:12:28;15.25;;;2.05;;
64351;SDS011;50680;52.626;-8.668;2023-03-23T07:14:54;8.90;;;1.40;;
64351;SDS011;50680;52.626;-8.668;2023-03-23T07:17:20;12.65;;;2.00;;
64351;SDS011;50680;52.626;-8.668;2023-03-23T07:19:46;15.50;;;1.20;;
64351;SDS011;50680;52.626;-8.668;2023-03-23T07:22:12;6.53;;;1.08;;
64351;SDS011;50680;52.626;-8.668;2023-03-23T07:24:38;8.52;;;1.20;;
64351;SDS011;50680;52.626;-8.668;2023-03-23T07:27:03;7.03;;;1.17;;
64351;SDS011;50680;52.626;-8.668;2023-03-23T07:29:29;4.60;;;0.60;;
64351;SDS011;50680;52.626;-8.668;2023-03-23T07:31:56;8.75;;;0.70;;
64351;SDS011;50680;52.626;-8.668;2023-03-23T07:34:22;7.57;;;0.88;;
64351;SDS011;50680;52.626;-8.668;2023-03-23T07:36:47;4.05;;;0.70;;
64351;SDS011;50680;52.626;-8.668;2023-03-23T07:39:13;2.88;;;0.60;;
64351;SDS011;50680;52.626;-8.668;2023-03-23T07:41:39;4.10;;;0.40;;
64351;SDS011;50680;52.626;-8.668;2023-03-23T07:44:05;2.00;;;0.55;;
64351;SDS011;50680;52.626;-8.668;2023-03-23T07:46:31;4.55;;;1.00;;
64351;SDS011;50680;52.626;-8.668;2023-03-23T07:48:58;5.65;;;0.60;;
64351;SDS011;50680;52.626;-8.668;2023-03-23T07:51:24;6.82;;;0.80;;
64351;SDS011;50680;52.626;-8.668;2023-03-23T07:53:50;4.35;;;0.80;;
64351;SDS011;50680;52.626;-8.668;2023-03-23T07:56:16;4.28;;;0.52;;
64351;SDS011;50680;52.626;-8.668;2023-03-23T07:58:47;6.80;;;0.90;;
64351;SDS011;50680;52.626;-8.668;2023-03-23T08:01:13;5.63;;;1.40;;
64351;SDS011;50680;52.626;-8.668;2023-03-23T08:03:39;4.68;;;0.95;;
64351;SDS011;50680;52.626;-8.668;2023-03-23T08:06:05;8.75;;;1.08;;
64351;SDS011;50680;52.626;-8.668;2023-03-23T08:08:31;7.95;;;1.30;;
64351;SDS011;50680;52.626;-8.668;2023-03-23T08:10:58;6.68;;;1.05;;
64351;SDS011;50680;52.626;-8.668;2023-03-23T08:13:24;9.13;;;1.70;;
64351;SDS011;50680;52.626;-8.668;2023-03-23T08:15:50;5.32;;;1.00;;
64351;SDS011;50680;52.626;-8.668;2023-03-23T08:18:16;10.10;;;2.00;;
64351;SDS011;50680;52.626;-8.668;2023-03-23T08:20:42;12.20;;;1.00;;
64351;SDS011;50680;52.626;-8.668;2023-03-23T08:23:09;9.38;;;1.40;;
64351;SDS011;50680;52.626;-8.668;2023-03-23T08:25:36;9.30;;;1.08;;
64351;SDS011;50680;52.626;-8.668;2023-03-23T08:28:02;12.77;;;1.08;;
64351;SDS011;50680;52.626;-8.668;2023-03-23T08:30:29;5.50;;;1.17;;
64351;SDS011;50680;52.626;-8.668;2023-03-23T08:32:56;8.20;;;1.27;;
64351;SDS011;50680;52.626;-8.668;2023-03-23T08:35:26;7.60;;;1.10;;
64351;SDS011;50680;52.626;-8.668;2023-03-23T08:37:52;15.23;;;1.70;;
64351;SDS011;50680;52.626;-8.668;2023-03-23T08:40:20;9.93;;;1.20;;
64351;SDS011;50680;52.626;-8.668;2023-03-23T08:42:48;5.65;;;0.95;;
64351;SDS011;50680;52.626;-8.668;2023-03-23T08:45:16;8.88;;;1.13;;
64351;SDS011;50680;52.626;-8.668;2023-03-23T08:47:44;9.18;;;0.98;;
64351;SDS011;50680;52.626;-8.668;2023-03-23T08:50:12;5.30;;;0.80;;
64351;SDS011;50680;52.626;-8.668;2023-03-23T08:52:40;11.05;;;1.35;;
64351;SDS011;50680;52.626;-8.668;2023-03-23T08:55:06;7.63;;;1.05;;
64351;SDS011;50680;52.626;-8.668;2023-03-23T08:57:34;8.38;;;1.08;;
64351;SDS011;50680;52.626;-8.668;2023-03-23T09:00:02;10.98;;;1.30;;
64351;SDS011;50680;52.626;-8.668;2023-03-23T09:02:39;8.45;;;1.20;;
64351;SDS011;50680;52.626;-8.668;2023-03-23T09:05:06;8.45;;;1.80;;
64351;SDS011;50680;52.626;-8.668;2023-03-23T09:07:32;8.52;;;1.23;;
64351;SDS011;50680;52.626;-8.668;2023-03-23T09:09:57;9.13;;;1.20;;
64351;SDS011;50680;52.626;-8.668;2023-03-23T09:12:23;8.80;;;1.10;;
64351;SDS011;50680;52.626;-8.668;2023-03-23T09:14:49;9.88;;;1.45;;
64351;SDS011;50680;52.626;-8.668;2023-03-23T09:17:15;9.40;;;1.30;;
64351;SDS011;50680;52.626;-8.668;2023-03-23T09:19:40;11.48;;;1.58;;
64351;SDS011;50680;52.626;-8.668;2023-03-23T09:22:06;5.00;;;0.80;;
64351;SDS011;50680;52.626;-8.668;2023-03-23T09:24:33;8.07;;;1.10;;
64351;SDS011;50680;52.626;-8.668;2023-03-23T09:26:59;9.73;;;1.17;;
64351;SDS011;50680;52.626;-8.668;2023-03-23T09:29:25;10.15;;;1.00;;
64351;SDS011;50680;52.626;-8.668;2023-03-23T09:31:52;7.45;;;0.90;;
64351;SDS011;50680;52.626;-8.668;2023-03-23T09:34:19;9.48;;;1.27;;
64351;SDS011;50680;52.626;-8.668;2023-03-23T09:36:45;8.73;;;1.00;;
64351;SDS011;50680;52.626;-8.668;2023-03-23T09:39:11;6.25;;;1.27;;
64351;SDS011;50680;52.626;-8.668;2023-03-23T09:41:45;8.52;;;1.10;;
64351;SDS011;50680;52.626;-8.668;2023-03-23T09:47:33;6.87;;;1.00;;
64351;SDS011;50680;52.626;-8.668;2023-03-23T09:50:14;2.58;;;0.65;;
64351;SDS011;50680;52.626;-8.668;2023-03-23T09:55:09;7.05;;;0.70;;
64351;SDS011;50680;52.626;-8.668;2023-03-23T10:00:26;3.78;;;0.80;;
64351;SDS011;50680;52.626;-8.668;2023-03-23T10:03:31;7.22;;;0.90;;
64351;SDS011;50680;52.626;-8.668;2023-03-23T10:06:02;6.53;;;0.82;;
64351;SDS011;50680;52.626;-8.668;2023-03-23T10:08:30;5.13;;;0.70;;
64351;SDS011;50680;52.626;-8.668;2023-03-23T10:11:00;11.02;;;1.10;;
64351;SDS011;50680;52.626;-8.668;2023-03-23T10:16:32;10.30;;;1.20;;
64351;SDS011;50680;52.626;-8.668;2023-03-23T10:19:14;8.50;;;1.17;;
64351;SDS011;50680;52.626;-8.668;2023-03-23T10:21:47;6.70;;;0.98;;
64351;SDS011;50680;52.626;-8.668;2023-03-23T10:24:21;9.85;;;1.42;;
64351;SDS011;50680;52.626;-8.668;2023-03-23T10:29:50;17.33;;;1.33;;
64351;SDS011;50680;52.626;-8.668;2023-03-23T10:35:10;10.23;;;1.63;;
64351;SDS011;50680;52.626;-8.668;2023-03-23T10:37:42;12.50;;;1.30;;
64351;SDS011;50680;52.626;-8.668;2023-03-23T10:40:14;11.63;;;1.55;;
64351;SDS011;50680;52.626;-8.668;2023-03-23T10:42:45;14.32;;;2.00;;
64351;SDS011;50680;52.626;-8.668;2023-03-23T10:45:16;12.52;;;2.00;;
64351;SDS011;50680;52.626;-8.668;2023-03-23T10:47:46;8.38;;;1.20;;
64351;SDS011;50680;52.626;-8.668;2023-03-23T10:50:33;13.32;;;1.42;;
64351;SDS011;50680;52.626;-8.668;2023-03-23T10:53:00;7.95;;;1.00;;
64351;SDS011;50680;52.626;-8.668;2023-03-23T10:55:39;11.40;;;1.58;;
64351;SDS011;50680;52.626;-8.668;2023-03-23T10:58:08;6.32;;;0.55;;
64351;SDS011;50680;52.626;-8.668;2023-03-23T11:00:45;5.10;;;0.82;;
64351;SDS011;50680;52.626;-8.668;2023-03-23T11:08:13;4.45;;;0.90;;
64351;SDS011;50680;52.626;-8.668;2023-03-23T11:10:55;8.25;;;0.98;;
64351;SDS011;50680;52.626;-8.668;2023-03-23T11:13:22;10.98;;;1.45;;
64351;SDS011;50680;52.626;-8.668;2023-03-23T11:15:55;7.50;;;0.90;;
64351;SDS011;50680;52.626;-8.668;2023-03-23T11:18:23;5.70;;;1.23;;
64351;SDS011;50680;52.626;-8.668;2023-03-23T11:20:50;4.32;;;0.80;;
64351;SDS011;50680;52.626;-8.668;2023-03-23T11:25:54;5.67;;;0.90;;
64351;SDS011;50680;52.626;-8.668;2023-03-23T11:28:25;9.00;;;1.25;;
64351;SDS011;50680;52.626;-8.668;2023-03-23T11:30:55;8.90;;;1.05;;
64351;SDS011;50680;52.626;-8.668;2023-03-23T11:33:22;5.25;;;0.68;;
64351;SDS011;50680;52.626;-8.668;2023-03-23T11:35:51;7.72;;;1.00;;
64351;SDS011;50680;52.626;-8.668;2023-03-23T11:38:20;7.40;;;0.93;;
64351;SDS011;50680;52.626;-8.668;2023-03-23T11:40:50;8.10;;;0.95;;
64351;SDS011;50680;52.626;-8.668;2023-03-23T11:43:24;6.82;;;0.93;;
64351;SDS011;50680;52.626;-8.668;2023-03-23T11:46:05;6.35;;;1.35;;
64351;SDS011;50680;52.626;-8.668;2023-03-23T11:48:38;7.25;;;0.75;;
64351;SDS011;50680;52.626;-8.668;2023-03-23T11:51:10;7.78;;;0.88;;
64351;SDS011;50680;52.626;-8.668;2023-03-23T11:54:09;10.13;;;0.90;;
64351;SDS011;50680;52.626;-8.668;2023-03-23T11:56:55;9.60;;;1.13;;
64351;SDS011;50680;52.626;-8.668;2023-03-23T11:59:34;8.60;;;1.35;;
64351;SDS011;50680;52.626;-8.668;2023-03-23T12:02:13;10.13;;;1.10;;
64351;SDS011;50680;52.626;-8.668;2023-03-23T12:10:25;5.70;;;1.00;;
64351;SDS011;50680;52.626;-8.668;2023-03-23T12:13:15;7.10;;;1.05;;
64351;SDS011;50680;52.626;-8.668;2023-03-23T12:21:33;6.07;;;0.90;;
64351;SDS011;50680;52.626;-8.668;2023-03-23T12:26:54;5.55;;;1.05;;
64351;SDS011;50680;52.626;-8.668;2023-03-23T12:35:37;10.55;;;1.00;;
64351;SDS011;50680;52.626;-8.668;2023-03-23T12:43:47;7.28;;;0.88;;
64351;SDS011;50680;52.626;-8.668;2023-03-23T12:49:05;4.78;;;0.70;;
64351;SDS011;50680;52.626;-8.668;2023-03-23T12:54:18;5.80;;;0.90;;
64351;SDS011;50680;52.626;-8.668;2023-03-23T12:56:56;10.75;;;1.50;;
64351;SDS011;50680;52.626;-8.668;2023-03-23T12:59:32;8.15;;;1.42;;
64351;SDS011;50680;52.626;-8.668;2023-03-23T13:02:15;9.98;;;1.77;;
64351;SDS011;50680;52.626;-8.668;2023-03-23T13:04:58;10.85;;;1.30;;
64351;SDS011;50680;52.626;-8.668;2023-03-23T13:07:35;10.25;;;1.80;;
64351;SDS011;50680;52.626;-8.668;2023-03-23T13:10:20;10.85;;;1.60;;
64351;SDS011;50680;52.626;-8.668;2023-03-23T13:12:49;7.90;;;1.23;;
64351;SDS011;50680;52.626;-8.668;2023-03-23T13:15:27;10.30;;;1.30;;
64351;SDS011;50680;52.626;-8.668;2023-03-23T13:18:10;6.45;;;0.77;;
64351;SDS011;50680;52.626;-8.668;2023-03-23T13:23:22;5.03;;;1.08;;
64351;SDS011;50680;52.626;-8.668;2023-03-23T13:25:55;7.88;;;0.90;;
64351;SDS011;50680;52.626;-8.668;2023-03-23T13:28:27;4.72;;;0.63;;
64351;SDS011;50680;52.626;-8.668;2023-03-23T13:33:25;5.38;;;0.73;;
64351;SDS011;50680;52.626;-8.668;2023-03-23T13:35:56;4.88;;;0.50;;
64351;SDS011;50680;52.626;-8.668;2023-03-23T13:38:30;2.75;;;0.60;;
64351;SDS011;50680;52.626;-8.668;2023-03-23T13:40:56;3.55;;;0.65;;
64351;SDS011;50680;52.626;-8.668;2023-03-23T13:43:33;6.72;;;0.70;;
64351;SDS011;50680;52.626;-8.668;2023-03-23T13:46:07;4.45;;;0.80;;
64351;SDS011;50680;52.626;-8.668;2023-03-23T13:48:48;3.53;;;0.68;;
64351;SDS011;50680;52.626;-8.668;2023-03-23T13:51:31;5.72;;;0.80;;
64351;SDS011;50680;52.626;-8.668;2023-03-23T13:56:42;10.75;;;1.20;;
64351;SDS011;50680;52.626;-8.668;2023-03-23T14:04:18;11.05;;;1.27;;
64351;SDS011;50680;52.626;-8.668;2023-03-23T14:06:45;10.32;;;1.10;;
64351;SDS011;50680;52.626;-8.668;2023-03-23T14:09:32;14.23;;;1.75;;
64351;SDS011;50680;52.626;-8.668;2023-03-23T14:14:40;7.88;;;1.40;;
64351;SDS011;50680;52.626;-8.668;2023-03-23T14:17:16;8.73;;;1.02;;
64351;SDS011;50680;52.626;-8.668;2023-03-23T14:19:54;15.55;;;2.03;;
64351;SDS011;50680;52.626;-8.668;2023-03-23T14:22:28;6.65;;;1.00;;
64351;SDS011;50680;52.626;-8.668;2023-03-23T14:24:59;11.23;;;1.33;;
64351;SDS011;50680;52.626;-8.668;2023-03-23T14:27:35;5.45;;;1.10;;
64351;SDS011;50680;52.626;-8.668;2023-03-23T14:30:03;8.27;;;1.35;;
64351;SDS011;50680;52.626;-8.668;2023-03-23T14:32:33;8.35;;;1.23;;
64351;SDS011;50680;52.626;-8.668;2023-03-23T14:35:12;8.35;;;1.13;;
64351;SDS011;50680;52.626;-8.668;2023-03-23T14:37:39;7.22;;;0.80;;
64351;SDS011;50680;52.626;-8.668;2023-03-23T14:40:05;4.88;;;1.00;;
64351;SDS011;50680;52.626;-8.668;2023-03-23T14:42:34;6.78;;;0.70;;
64351;SDS011;50680;52.626;-8.668;2023-03-23T14:45:01;6.63;;;0.90;;
64351;SDS011;50680;52.626;-8.668;2023-03-23T14:47:38;5.05;;;1.42;;
64351;SDS011;50680;52.626;-8.668;2023-03-23T14:53:16;3.03;;;0.70;;
64351;SDS011;50680;52.626;-8.668;2023-03-23T14:55:46;9.88;;;0.98;;
64351;SDS011;50680;52.626;-8.668;2023-03-23T14:58:14;10.75;;;1.02;;
64351;SDS011;50680;52.626;-8.668;2023-03-23T15:00:43;5.90;;;1.00;;
64351;SDS011;50680;52.626;-8.668;2023-03-23T15:03:15;6.18;;;1.33;;
64351;SDS011;50680;52.626;-8.668;2023-03-23T15:05:43;12.00;;;1.17;;
64351;SDS011;50680;52.626;-8.668;2023-03-23T15:08:27;10.77;;;1.75;;
64351;SDS011;50680;52.626;-8.668;2023-03-23T15:13:32;12.98;;;1.50;;
64351;SDS011;50680;52.626;-8.668;2023-03-23T15:16:07;9.25;;;1.17;;
64351;SDS011;50680;52.626;-8.668;2023-03-23T15:18:39;8.45;;;1.23;;
64351;SDS011;50680;52.626;-8.668;2023-03-23T15:21:11;7.78;;;1.38;;
64351;SDS011;50680;52.626;-8.668;2023-03-23T15:23:45;7.53;;;0.80;;
64351;SDS011;50680;52.626;-8.668;2023-03-23T15:26:17;7.63;;;1.33;;
64351;SDS011;50680;52.626;-8.668;2023-03-23T15:29:00;7.03;;;1.25;;
64351;SDS011;50680;52.626;-8.668;2023-03-23T15:31:57;7.88;;;1.10;;
64351;SDS011;50680;52.626;-8.668;2023-03-23T15:34:25;8.50;;;0.82;;
64351;SDS011;50680;52.626;-8.668;2023-03-23T15:36:59;10.38;;;0.93;;
64351;SDS011;50680;52.626;-8.668;2023-03-23T15:39:27;6.47;;;1.20;;
64351;SDS011;50680;52.626;-8.668;2023-03-23T15:41:55;10.05;;;1.05;;
64351;SDS011;50680;52.626;-8.668;2023-03-23T15:44:27;9.32;;;1.00;;
64351;SDS011;50680;52.626;-8.668;2023-03-23T15:47:17;7.68;;;0.90;;
64351;SDS011;50680;52.626;-8.668;2023-03-23T15:49:45;6.93;;;1.00;;
64351;SDS011;50680;52.626;-8.668;2023-03-23T15:52:12;6.35;;;1.20;;
64351;SDS011;50680;52.626;-8.668;2023-03-23T15:54:45;9.57;;;1.15;;
64351;SDS011;50680;52.626;-8.668;2023-03-23T15:57:12;9.55;;;1.00;;
64351;SDS011;50680;52.626;-8.668;2023-03-23T15:59:38;8.55;;;1.00;;
64351;SDS011;50680;52.626;-8.668;2023-03-23T16:02:04;11.18;;;0.93;;
64351;SDS011;50680;52.626;-8.668;2023-03-23T16:04:32;6.72;;;1.02;;
64351;SDS011;50680;52.626;-8.668;2023-03-23T16:06:59;6.65;;;1.50;;
64351;SDS011;50680;52.626;-8.668;2023-03-23T16:09:26;6.95;;;1.00;;
64351;SDS011;50680;52.626;-8.668;2023-03-23T16:11:53;6.85;;;0.45;;
64351;SDS011;50680;52.626;-8.668;2023-03-23T16:14:19;1.65;;;0.47;;
64351;SDS011;50680;52.626;-8.668;2023-03-23T16:16:49;3.55;;;0.68;;
64351;SDS011;50680;52.626;-8.668;2023-03-23T16:19:18;1.17;;;0.35;;
64351;SDS011;50680;52.626;-8.668;2023-03-23T16:21:49;3.00;;;0.70;;
64351;SDS011;50680;52.626;-8.668;2023-03-23T16:24:16;4.78;;;0.60;;
64351;SDS011;50680;52.626;-8.668;2023-03-23T16:26:43;2.85;;;0.52;;
64351;SDS011;50680;52.626;-8.668;2023-03-23T16:29:11;5.25;;;0.68;;
64351;SDS011;50680;52.626;-8.668;2023-03-23T16:31:59;5.57;;;0.60;;
64351;SDS011;50680;52.626;-8.668;2023-03-23T16:34:26;6.13;;;1.00;;
64351;SDS011;50680;52.626;-8.668;2023-03-23T16:36:55;9.73;;;1.00;;